createdAt,value
2022-12-19T03:46:02.232Z,102441.06
2022-12-19T03:49:04.972Z,102447.94
2022-12-19T03:52:36.889Z,102449.72
2022-12-19T03:55:47.236Z,102444.53
2022-12-19T03:58:58.479Z,102451.41
2022-12-19T04:02:03.532Z,102450.47
2022-12-19T04:05:12.912Z,102461.72
2022-12-19T04:08:16.681Z,102452.63
2022-12-19T04:11:20.566Z,102446.50
2022-12-19T04:14:31.919Z,102449.28
2022-12-19T04:17:57.190Z,102454.59
2022-12-19T04:21:08.206Z,102446.84
2022-12-19T04:24:23.984Z,102456.06
2022-12-19T04:27:28.013Z,102454.09
2022-12-19T04:30:36.597Z,102453.53
2022-12-19T04:33:39.115Z,102457.72
2022-12-19T04:36:41.469Z,102457.63
2022-12-19T04:39:43.623Z,102455.75
2022-12-19T04:42:45.976Z,102457.41
2022-12-19T04:45:50.629Z,102454.75
2022-12-19T04:48:56.530Z,102453.81
2022-12-19T04:51:58.707Z,102457.22
2022-12-19T04:55:01.338Z,102451.88
2022-12-19T04:58:07.480Z,102452.28
2022-12-19T05:01:10.250Z,102456.38
2022-12-19T05:04:12.413Z,102448.94
2022-12-19T05:07:15.026Z,102449.84
2022-12-19T05:10:17.372Z,102451.91
2022-12-19T05:13:19.745Z,102454.75
2022-12-19T05:16:21.905Z,102455.25
2022-12-19T05:19:24.360Z,102460.81
2022-12-19T05:22:26.478Z,102466.00
2022-12-19T05:25:28.822Z,102456.00
2022-12-19T05:28:32.117Z,102457.63
2022-12-19T05:31:35.387Z,102454.06
2022-12-19T05:34:37.529Z,102450.56
2022-12-19T05:37:39.913Z,102440.13
2022-12-19T05:40:42.026Z,102431.19
2022-12-19T05:43:53.411Z,102440.72
2022-12-19T05:46:55.583Z,102443.56
2022-12-19T05:49:57.991Z,102447.37
2022-12-19T05:53:00.122Z,102442.25
2022-12-19T05:56:08.740Z,102440.19
2022-12-19T05:59:11.792Z,102445.59
2022-12-19T06:02:14.253Z,102447.88
2022-12-19T06:05:17.119Z,102448.09
2022-12-19T06:08:19.424Z,102442.38
2022-12-19T06:11:22.190Z,102450.56
2022-12-19T06:14:24.321Z,102450.75
2022-12-19T06:17:27.360Z,102460.87
2022-12-19T06:20:29.887Z,102470.53
2022-12-19T06:23:34.900Z,102464.59
2022-12-19T06:26:37.038Z,102461.84
2022-12-19T06:29:39.386Z,102459.56
2022-12-19T06:32:41.712Z,102463.03
2022-12-19T06:35:44.243Z,102463.87
2022-12-19T06:38:47.597Z,102472.16
2022-12-19T06:42:08.349Z,102470.53
2022-12-19T06:45:10.443Z,102475.72
2022-12-19T06:48:12.826Z,102477.78
2022-12-19T06:51:15.621Z,102477.19
2022-12-19T06:54:18.387Z,102477.37
2022-12-19T06:57:20.771Z,102467.88
2022-12-19T07:00:23.236Z,102464.81
2022-12-19T07:03:30.766Z,102471.06
2022-12-19T07:06:33.149Z,102474.72
2022-12-19T07:09:35.336Z,102481.59
2022-12-19T07:12:37.790Z,102478.00
2022-12-19T07:15:40.625Z,102480.44
2022-12-19T07:18:46.181Z,102486.50
2022-12-19T07:21:48.881Z,102496.94
2022-12-19T07:24:51.501Z,102492.13
2022-12-19T07:27:53.777Z,102481.69
2022-12-19T07:30:56.157Z,102480.16
2022-12-19T07:33:58.551Z,102489.16
2022-12-19T07:37:01.979Z,102483.41
2022-12-19T07:40:04.691Z,102485.91
2022-12-19T07:43:07.132Z,102489.38
2022-12-19T07:46:09.349Z,102485.47
2022-12-19T07:49:12.031Z,102482.31
2022-12-19T07:52:14.227Z,102478.22
2022-12-19T07:55:16.689Z,102480.56
2022-12-19T07:58:19.521Z,102491.81
2022-12-19T08:01:22.779Z,102487.19
2022-12-19T08:04:25.451Z,102497.16
2022-12-19T08:07:27.530Z,102495.75
2022-12-19T08:10:30.906Z,102490.34
2022-12-19T08:13:38.713Z,102493.56
2022-12-19T08:17:18.149Z,102510.63
2022-12-19T08:20:08.411Z,102512.19
2022-12-19T08:23:11.024Z,102516.09
2022-12-19T08:26:24.929Z,102522.19
2022-12-19T08:29:28.165Z,102512.47
2022-12-19T08:32:30.306Z,102506.53
2022-12-19T08:35:33.157Z,102512.63
2022-12-19T08:38:35.971Z,102501.47
2022-12-19T08:41:38.300Z,102491.44
2022-12-19T08:44:40.401Z,102484.66
2022-12-19T08:47:43.703Z,102484.16
2022-12-19T08:50:51.752Z,102491.53
2022-12-19T08:53:54.209Z,102497.63
2022-12-19T08:56:56.322Z,102487.44
2022-12-19T08:59:58.674Z,102498.25
2022-12-19T09:03:01.813Z,102470.03
2022-12-19T09:06:10.497Z,102473.28
2022-12-19T09:09:17.691Z,102478.06
2022-12-19T09:12:20.085Z,102471.47
2022-12-19T09:15:22.245Z,102466.34
2022-12-19T09:18:24.658Z,102464.22
2022-12-19T09:21:29.244Z,102464.47
2022-12-19T09:24:32.021Z,102469.19
2022-12-19T09:28:01.229Z,102485.06
2022-12-19T09:30:58.258Z,102500.22
2022-12-19T09:34:00.527Z,102493.03
2022-12-19T09:37:03.042Z,102488.53
2022-12-19T09:40:05.816Z,102477.91
2022-12-19T09:43:43.740Z,102468.47
2022-12-19T09:46:52.621Z,102463.75
2022-12-19T09:49:55.166Z,102466.59
2022-12-19T09:53:02.927Z,102450.63
2022-12-19T09:56:14.502Z,102448.97
2022-12-19T09:59:58.434Z,102445.38
2022-12-19T10:03:21.665Z,102435.47
2022-12-19T10:07:08.806Z,102428.66
2022-12-19T10:12:14.561Z,102426.97
2022-12-19T10:13:28.962Z,102413.78
2022-12-19T10:17:02.026Z,102397.16
2022-12-19T10:20:24.339Z,102397.13
2022-12-19T10:23:42.369Z,102414.41
2022-12-19T10:26:48.937Z,102414.53
2022-12-19T10:30:10.506Z,102414.75
2022-12-19T10:33:26.422Z,102423.63
2022-12-19T10:37:04.710Z,102407.47
2022-12-19T10:40:28.582Z,102397.44
2022-12-19T10:43:44.743Z,102394.31
2022-12-19T10:46:50.039Z,102376.59
2022-12-19T10:49:52.318Z,102376.06
2022-12-19T10:53:03.931Z,102377.38
2022-12-19T10:56:20.472Z,102377.34
2022-12-19T10:59:24.437Z,102379.31
2022-12-19T11:02:45.532Z,102380.72
2022-12-19T11:05:58.366Z,102373.50
2022-12-19T11:09:21.331Z,102377.75
2022-12-19T11:15:51.519Z,102373.22
2022-12-19T11:21:50.577Z,102374.75
2022-12-19T11:29:39.119Z,102367.75
2022-12-19T11:30:05.169Z,102373.41
2022-12-19T11:30:37.609Z,102368.72
2022-12-19T11:33:55.126Z,102356.75
2022-12-19T11:37:17.981Z,102354.78
2022-12-19T11:40:23.378Z,102345.31
2022-12-19T11:43:45.028Z,102330.78
2022-12-19T11:46:56.919Z,102330.91
2022-12-19T11:50:11.315Z,102313.94
2022-12-19T11:53:23.270Z,102303.88
2022-12-19T11:56:27.854Z,102298.50
2022-12-19T11:59:38.110Z,102303.19
2022-12-19T12:03:01.969Z,102307.00
2022-12-19T12:06:12.915Z,102309.06
2022-12-19T12:13:04.127Z,102314.63
2022-12-19T12:22:21.846Z,102299.81
2022-12-19T12:30:11.014Z,102297.91
2022-12-19T12:31:08.219Z,102314.56
2022-12-19T12:31:51.533Z,102312.91
2022-12-19T12:32:06.755Z,102310.44
2022-12-19T12:39:14.544Z,102316.84
2022-12-19T12:42:47.395Z,102310.28
2022-12-19T12:45:49.786Z,102312.22
2022-12-19T12:49:01.771Z,102308.53
2022-12-19T12:52:06.951Z,102305.72
2022-12-19T12:55:40.074Z,102312.50
2022-12-19T12:59:05.976Z,102303.09
2022-12-19T13:02:18.370Z,102298.31
2022-12-19T13:05:40.897Z,102284.53
2022-12-19T13:08:47.737Z,102278.69
2022-12-19T13:12:35.385Z,102276.78
2022-12-19T13:15:45.827Z,102288.34
2022-12-19T13:19:22.648Z,102291.31
2022-12-19T13:22:31.888Z,102286.88
2022-12-19T13:25:33.978Z,102284.00
2022-12-19T13:28:41.421Z,102282.13
2022-12-19T13:32:11.240Z,102272.56
2022-12-19T13:35:59.826Z,102275.31
2022-12-19T13:39:56.637Z,102261.16
2022-12-19T13:42:31.080Z,102272.12
2022-12-19T13:45:33.654Z,102268.28
2022-12-19T13:48:45.765Z,102251.28
2022-12-19T13:51:51.879Z,102254.88
2022-12-19T13:54:57.688Z,102263.06
2022-12-19T13:58:04.095Z,102264.84
2022-12-19T14:01:21.005Z,102267.94
2022-12-19T14:04:28.334Z,102272.72
2022-12-19T14:07:41.659Z,102271.66
2022-12-19T14:11:33.531Z,102263.06
2022-12-19T14:14:34.601Z,102259.38
2022-12-19T14:17:36.895Z,102267.59
2022-12-19T14:22:03.752Z,102257.00
2022-12-19T14:24:21.547Z,102266.72
2022-12-19T14:28:19.306Z,102263.25
2022-12-19T14:31:05.139Z,102259.16
2022-12-19T14:34:46.931Z,102266.38
2022-12-19T14:39:19.796Z,102258.59
2022-12-19T14:41:09.360Z,102258.25
2022-12-19T14:52:34.428Z,102268.75
2022-12-19T14:52:50.856Z,102265.53
2022-12-19T14:54:26.180Z,102268.06
2022-12-19T14:58:54.064Z,102272.00
2022-12-19T15:01:40.814Z,102267.87
2022-12-19T15:04:54.571Z,102261.09
2022-12-19T15:08:00.116Z,102265.09
2022-12-19T15:11:41.069Z,102265.31
2022-12-19T15:14:58.990Z,102269.84
2022-12-19T15:18:16.165Z,102277.41
2022-12-19T15:21:18.375Z,102280.97
2022-12-19T15:24:20.782Z,102279.03
2022-12-19T15:27:22.930Z,102278.31
2022-12-19T15:30:38.016Z,102273.81
2022-12-19T15:33:53.777Z,102267.97
2022-12-19T15:37:02.767Z,102285.47
2022-12-19T15:40:05.555Z,102283.44
2022-12-19T15:43:53.142Z,102282.19
2022-12-19T15:46:46.409Z,102280.38
2022-12-19T15:49:50.992Z,102286.50
2022-12-19T15:52:56.241Z,102274.72
2022-12-19T15:55:59.935Z,102265.81
2022-12-19T15:59:04.230Z,102270.03
2022-12-19T16:02:24.140Z,102270.31
2022-12-19T16:05:29.206Z,102267.91
2022-12-19T16:08:31.612Z,102266.16
2022-12-19T16:11:33.994Z,102255.28
2022-12-19T16:14:36.076Z,102259.44
2022-12-19T16:17:38.429Z,102259.16
